Time;durP1;ratioP1;P1;durP2;ratioP2;P2;SDS_P1;SDS_P2;PMS_P1;PMS_P2;Temp;Humidity;BMP_temperature;BMP_pressure;BME280_temperature;BME280_humidity;BME280_pressure;Samples;Min_cycle;Max_cycle;Signal;HPM_P1;HPM_P2
2021/12/22 00:01:25;;;;;;;13.27;7.93;;;1.50;99.90;;;;;;5013897;28;20442;-69
2021/12/22 00:03:51;;;;;;;15.75;8.40;;;1.40;99.90;;;;;;5014106;28;20463;-66
2021/12/22 00:06:22;;;;;;;11.60;7.13;;;1.40;99.90;;;;;;5013498;28;20088;-66
2021/12/22 00:08:48;;;;;;;18.65;8.30;;;1.40;99.90;;;;;;5012596;28;20124;-74
2021/12/22 00:11:14;;;;;;;22.50;9.23;;;1.40;99.90;;;;;;5013185;28;20113;-69
2021/12/22 00:13:40;;;;;;;17.83;9.70;;;1.60;99.90;;;;;;5013111;28;20034;-68
2021/12/22 00:16:06;;;;;;;17.20;9.88;;;1.50;99.90;;;;;;5012645;28;20026;-66
2021/12/22 00:18:32;;;;;;;17.20;8.70;;;1.40;99.90;;;;;;5007208;28;20034;-64
2021/12/22 00:20:58;;;;;;;17.85;8.35;;;1.30;99.90;;;;;;5009893;28;20041;-66
2021/12/22 00:23:24;;;;;;;14.27;8.25;;;1.40;99.90;;;;;;5013520;28;20030;-66
2021/12/22 00:25:49;;;;;;;17.00;9.50;;;1.50;99.90;;;;;;5013652;28;20034;-67
2021/12/22 00:28:15;;;;;;;19.38;8.25;;;1.40;99.90;;;;;;5012952;28;20026;-67
2021/12/22 00:30:42;;;;;;;19.33;9.63;;;1.30;99.90;;;;;;4999176;28;20375;-67
2021/12/22 00:33:10;;;;;;;18.77;9.45;;;1.30;99.90;;;;;;5012734;28;20071;-66
2021/12/22 00:35:41;;;;;;;15.07;8.60;;;1.40;99.90;;;;;;5011728;28;20034;-67
2021/12/22 00:38:09;;;;;;;16.75;8.70;;;1.30;99.90;;;;;;5007720;28;20518;-67
2021/12/22 00:40:35;;;;;;;15.77;9.20;;;1.20;99.90;;;;;;5009304;28;20029;-69
2021/12/22 00:43:01;;;;;;;16.02;9.10;;;1.20;99.90;;;;;;5011325;28;20030;-67
2021/12/22 00:45:28;;;;;;;16.80;8.52;;;1.10;99.90;;;;;;5011291;28;20489;-68
2021/12/22 00:47:55;;;;;;;19.90;8.93;;;1.00;99.90;;;;;;5013574;28;20109;-67
2021/12/22 00:50:22;;;;;;;15.48;8.82;;;1.10;99.90;;;;;;5014421;28;20045;-67
2021/12/22 00:52:48;;;;;;;16.52;8.85;;;1.10;99.90;;;;;;5013901;28;20080;-67
2021/12/22 00:55:18;;;;;;;16.65;8.95;;;1.00;99.90;;;;;;5013293;28;20164;-70
2021/12/22 00:57:45;;;;;;;19.27;9.27;;;1.00;99.90;;;;;;5013689;28;20229;-67
2021/12/22 01:00:11;;;;;;;19.13;8.77;;;0.90;99.90;;;;;;5013663;28;20030;-68
2021/12/22 01:02:37;;;;;;;16.02;10.38;;;0.80;99.90;;;;;;5013163;28;20061;-67
2021/12/22 01:05:03;;;;;;;18.40;9.57;;;0.80;99.90;;;;;;5013581;28;20160;-67
2021/12/22 01:07:29;;;;;;;17.98;9.13;;;0.80;99.90;;;;;;5012409;28;20042;-69
2021/12/22 01:09:55;;;;;;;19.00;9.48;;;0.80;99.90;;;;;;5015721;28;20106;-69
2021/12/22 01:12:21;;;;;;;19.90;10.32;;;0.70;99.90;;;;;;5013005;28;20076;-68
2021/12/22 01:14:48;;;;;;;14.75;9.30;;;0.80;99.90;;;;;;5012682;28;20038;-68
2021/12/22 01:17:16;;;;;;;14.73;8.55;;;0.80;99.90;;;;;;5013536;28;20030;-68
2021/12/22 01:19:59;;;;;;;17.50;8.80;;;0.70;99.90;;;;;;5013515;28;20026;-67
2021/12/22 01:22:33;;;;;;;18.25;9.75;;;0.70;99.90;;;;;;5014291;28;20109;-67
2021/12/22 01:25:09;;;;;;;17.98;9.52;;;0.70;99.90;;;;;;5014030;28;20042;-69
2021/12/22 01:27:39;;;;;;;17.30;9.13;;;0.80;99.90;;;;;;5013969;28;20460;-67
2021/12/22 01:30:08;;;;;;;17.15;9.75;;;0.70;99.90;;;;;;5016127;28;20049;-68
2021/12/22 01:32:35;;;;;;;15.65;9.38;;;0.80;99.90;;;;;;5015371;28;20044;-69
2021/12/22 01:35:01;;;;;;;18.00;9.93;;;0.70;99.90;;;;;;5014795;28;20034;-67
2021/12/22 01:37:27;;;;;;;21.98;9.43;;;0.70;99.90;;;;;;5011429;28;20053;-67
2021/12/22 01:39:52;;;;;;;18.30;9.63;;;0.70;99.90;;;;;;5017129;28;20026;-66
2021/12/22 01:42:18;;;;;;;14.95;8.73;;;0.70;99.90;;;;;;5015390;28;20021;-67
2021/12/22 01:50:17;;;;;;;14.98;8.60;;;0.70;99.90;;;;;;5017203;28;20037;-68
2021/12/22 01:52:44;;;;;;;13.70;8.32;;;0.70;99.90;;;;;;5015520;28;20474;-68
2021/12/22 01:55:30;;;;;;;15.90;9.10;;;0.80;99.90;;;;;;5015398;28;20076;-67
2021/12/22 01:57:59;;;;;;;16.40;9.02;;;0.60;99.90;;;;;;5016762;28;20113;-68
2021/12/22 02:00:25;;;;;;;19.70;10.77;;;0.60;99.90;;;;;;5016284;28;20026;-70
2021/12/22 02:02:51;;;;;;;18.17;9.65;;;0.60;99.90;;;;;;5015467;28;20022;-68
2021/12/22 02:05:18;;;;;;;19.15;9.73;;;0.60;99.90;;;;;;5017176;28;20026;-69
2021/12/22 02:07:43;;;;;;;15.65;8.35;;;0.60;99.90;;;;;;5016503;28;20389;-67
2021/12/22 02:12:46;;;;;;;17.75;9.35;;;0.50;99.90;;;;;;5015548;28;20361;-67
2021/12/22 02:15:11;;;;;;;19.90;9.07;;;0.50;99.90;;;;;;5015195;28;20029;-68
2021/12/22 02:17:39;;;;;;;17.60;9.55;;;0.40;99.90;;;;;;5014682;28;20033;-67
2021/12/22 02:20:06;;;;;;;16.90;10.07;;;0.40;99.90;;;;;;5014923;28;20030;-69
2021/12/22 02:22:32;;;;;;;23.30;10.30;;;0.50;99.90;;;;;;5015897;28;20041;-67
2021/12/22 02:25:03;;;;;;;14.65;9.05;;;0.40;99.90;;;;;;5016586;28;20072;-71
2021/12/22 02:27:44;;;;;;;16.58;10.05;;;0.40;99.90;;;;;;5017308;28;20030;-67
2021/12/22 02:30:17;;;;;;;16.10;9.30;;;0.40;99.90;;;;;;5017395;28;20054;-71
2021/12/22 02:33:32;;;;;;;16.50;9.65;;;0.40;99.90;;;;;;5015923;28;20026;-68
2021/12/22 02:35:41;;;;;;;16.42;9.55;;;0.40;99.90;;;;;;5013422;28;20507;-67
2021/12/22 02:38:14;;;;;;;19.52;9.73;;;0.40;99.90;;;;;;5016107;28;20060;-67
2021/12/22 02:40:42;;;;;;;19.00;10.55;;;0.40;99.90;;;;;;5017354;28;20328;-67
2021/12/22 02:43:08;;;;;;;18.88;8.43;;;0.40;99.90;;;;;;5016069;28;20032;-67
2021/12/22 02:45:34;;;;;;;17.33;9.88;;;0.50;99.90;;;;;;5015176;28;20022;-67
2021/12/22 02:48:00;;;;;;;16.05;9.75;;;0.30;99.90;;;;;;5017263;28;20124;-69
2021/12/22 02:50:26;;;;;;;18.65;9.27;;;0.40;99.90;;;;;;4997802;28;20030;-67
2021/12/22 02:53:04;;;;;;;18.05;9.73;;;0.30;99.90;;;;;;5015338;28;20081;-67
2021/12/22 02:55:44;;;;;;;19.25;9.63;;;0.40;99.90;;;;;;4999853;28;20030;-67
2021/12/22 02:58:16;;;;;;;20.33;10.57;;;0.30;99.90;;;;;;5016171;28;20033;-67
2021/12/22 03:05:52;;;;;;;17.70;9.73;;;0.10;99.90;;;;;;5015686;28;20022;-67
2021/12/22 03:08:18;;;;;;;14.48;10.50;;;0.10;99.90;;;;;;5015112;28;20030;-67
2021/12/22 03:10:43;;;;;;;17.38;9.70;;;0.20;99.90;;;;;;5014855;28;20022;-67
2021/12/22 03:13:09;;;;;;;16.83;9.70;;;0.10;99.90;;;;;;5015536;28;20116;-67
2021/12/22 03:15:34;;;;;;;14.27;9.27;;;0.20;99.90;;;;;;5015857;28;20068;-67
2021/12/22 03:18:03;;;;;;;16.70;9.73;;;0.20;99.90;;;;;;5018013;28;20069;-67
2021/12/22 03:20:29;;;;;;;15.93;9.70;;;0.20;99.90;;;;;;5014147;28;20038;-67
2021/12/22 03:22:55;;;;;;;21.58;10.15;;;0.10;99.90;;;;;;5016424;28;20084;-70
2021/12/22 03:25:26;;;;;;;17.25;10.20;;;0.10;99.90;;;;;;5015823;28;20034;-67
2021/12/22 03:27:53;;;;;;;20.35;10.05;;;0.10;99.90;;;;;;5015387;28;20030;-66
2021/12/22 03:30:21;;;;;;;15.25;9.80;;;0.10;99.90;;;;;;5015327;28;20372;-67
2021/12/22 03:32:47;;;;;;;17.92;10.05;;;0.10;99.90;;;;;;5013700;28;20098;-67
2021/12/22 03:35:18;;;;;;;20.60;10.70;;;0.10;99.90;;;;;;5014818;28;20526;-68
2021/12/22 03:37:54;;;;;;;21.95;11.23;;;0.10;99.90;;;;;;5013533;28;20025;-69
2021/12/22 03:40:22;;;;;;;18.90;10.73;;;0.10;99.90;;;;;;5015799;28;20033;-66
2021/12/22 03:42:48;;;;;;;19.15;10.57;;;0.00;99.90;;;;;;5016036;28;20026;-67
2021/12/22 03:45:14;;;;;;;23.52;10.20;;;0.00;99.90;;;;;;5014837;28;20034;-67
2021/12/22 03:47:40;;;;;;;21.42;11.25;;;-0.10;99.90;;;;;;5014237;28;20148;-66
2021/12/22 03:50:08;;;;;;;18.52;10.50;;;-0.10;99.90;;;;;;5013140;28;20113;-67
2021/12/22 03:52:34;;;;;;;21.98;10.43;;;-0.10;99.90;;;;;;5014039;28;20041;-68
2021/12/22 03:54:59;;;;;;;17.38;11.23;;;-0.20;99.90;;;;;;5014464;28;20415;-67
2021/12/22 03:57:27;;;;;;;25.08;10.27;;;0.00;99.90;;;;;;5014564;28;20037;-69
2021/12/22 03:59:53;;;;;;;19.00;10.73;;;-0.10;99.90;;;;;;5014706;28;20475;-67
2021/12/22 04:02:21;;;;;;;18.35;9.93;;;-0.20;99.90;;;;;;5015267;28;20037;-67
2021/12/22 04:04:48;;;;;;;22.42;10.63;;;-0.20;99.90;;;;;;5015782;28;20534;-67
2021/12/22 04:07:15;;;;;;;19.70;12.52;;;-0.30;99.90;;;;;;5016304;28;20037;-69
2021/12/22 04:09:41;;;;;;;24.98;11.88;;;-0.30;99.90;;;;;;5014731;28;20448;-67
2021/12/22 04:12:07;;;;;;;23.90;10.50;;;-0.40;99.90;;;;;;5014299;28;20061;-68
2021/12/22 04:14:33;;;;;;;19.88;10.98;;;-0.30;99.90;;;;;;5013855;28;20088;-67
2021/12/22 04:16:59;;;;;;;22.15;10.55;;;-0.30;99.90;;;;;;5013142;28;20439;-67
2021/12/22 04:19:25;;;;;;;18.67;11.20;;;-0.30;99.90;;;;;;5014458;28;20030;-67
2021/12/22 04:21:51;;;;;;;20.50;11.35;;;-0.30;99.90;;;;;;5013940;28;20539;-68
2021/12/22 04:24:18;;;;;;;24.88;12.63;;;-0.40;99.90;;;;;;5011807;28;20061;-69
2021/12/22 04:26:44;;;;;;;20.98;12.18;;;-0.40;99.90;;;;;;5013265;28;20033;-67
2021/12/22 04:29:11;;;;;;;19.05;11.18;;;-0.30;99.90;;;;;;5012293;28;20572;-67
2021/12/22 04:31:37;;;;;;;21.23;10.77;;;-0.40;99.90;;;;;;5013530;28;20022;-68
2021/12/22 04:34:07;;;;;;;17.23;9.45;;;-0.40;99.90;;;;;;5013924;28;20108;-67
2021/12/22 04:36:33;;;;;;;19.30;11.35;;;-0.40;99.90;;;;;;5012248;28;20030;-67
2021/12/22 04:38:59;;;;;;;19.80;11.30;;;-0.40;99.90;;;;;;5012827;28;20034;-68
2021/12/22 04:41:26;;;;;;;24.65;11.50;;;-0.50;99.90;;;;;;5013680;28;20460;-69
2021/12/22 04:43:52;;;;;;;19.80;10.55;;;-0.50;99.90;;;;;;5012222;28;20450;-66
2021/12/22 04:46:20;;;;;;;16.95;10.95;;;-0.50;99.90;;;;;;5013954;28;20047;-67
2021/12/22 04:48:46;;;;;;;16.75;9.68;;;-0.50;99.90;;;;;;5013365;28;20033;-66
2021/12/22 04:51:21;;;;;;;26.00;10.55;;;-0.50;99.90;;;;;;5012959;28;20511;-67
2021/12/22 04:54:02;;;;;;;17.30;9.75;;;-0.50;99.90;;;;;;5013451;28;20468;-67
2021/12/22 04:56:28;;;;;;;17.52;10.55;;;-0.50;99.90;;;;;;5014714;28;20026;-69
2021/12/22 04:58:54;;;;;;;17.52;10.63;;;-0.50;99.90;;;;;;5016240;28;20025;-67
2021/12/22 05:01:20;;;;;;;21.98;10.00;;;-0.50;99.90;;;;;;5015807;28;20026;-67
2021/12/22 05:03:45;;;;;;;17.73;10.27;;;-0.50;99.90;;;;;;5013698;28;20037;-68
2021/12/22 05:06:11;;;;;;;20.83;10.02;;;-0.40;99.90;;;;;;5014024;28;20022;-68
2021/12/22 05:08:37;;;;;;;21.02;11.07;;;-0.50;99.90;;;;;;5013775;28;20075;-67
2021/12/22 05:11:03;;;;;;;19.77;9.63;;;-0.50;99.90;;;;;;5013012;28;20026;-66
2021/12/22 05:13:30;;;;;;;19.70;10.20;;;-0.40;99.90;;;;;;5013248;28;20125;-68
2021/12/22 05:15:55;;;;;;;15.63;10.02;;;-0.60;99.90;;;;;;4996413;28;20033;-67
2021/12/22 05:18:36;;;;;;;22.48;11.77;;;-0.60;99.90;;;;;;5012116;28;20021;-68
2021/12/22 05:21:02;;;;;;;17.98;9.40;;;-0.50;99.90;;;;;;5012881;28;20093;-67
2021/12/22 05:23:28;;;;;;;16.35;9.90;;;-0.60;99.90;;;;;;5013587;28;20086;-66
2021/12/22 05:25:53;;;;;;;16.98;9.93;;;-0.50;99.90;;;;;;5012173;28;20026;-67
2021/12/22 05:28:19;;;;;;;17.27;9.98;;;-0.60;99.90;;;;;;5013319;28;20033;-67
2021/12/22 05:30:47;;;;;;;15.43;8.93;;;-0.60;99.90;;;;;;5011829;28;20057;-67
2021/12/22 05:33:13;;;;;;;14.50;8.98;;;-0.70;99.90;;;;;;5013227;28;20018;-67
2021/12/22 05:35:40;;;;;;;19.05;9.48;;;-0.60;99.90;;;;;;5012536;28;20087;-67
2021/12/22 05:38:05;;;;;;;15.57;9.68;;;-0.60;99.90;;;;;;5013461;28;20371;-67
2021/12/22 05:40:31;;;;;;;17.33;9.65;;;-0.70;99.90;;;;;;5012574;28;20026;-67
2021/12/22 05:42:57;;;;;;;18.48;10.43;;;-0.60;99.90;;;;;;5012782;28;20083;-67
2021/12/22 05:45:25;;;;;;;13.85;8.57;;;-0.60;99.90;;;;;;5013372;28;20038;-67
2021/12/22 05:47:52;;;;;;;17.90;9.10;;;-0.50;99.90;;;;;;5011100;28;20503;-66
2021/12/22 05:50:18;;;;;;;16.73;8.73;;;-0.60;99.90;;;;;;5013293;28;20018;-67
2021/12/22 05:52:44;;;;;;;15.18;8.95;;;-0.70;99.90;;;;;;5010845;28;20037;-66
2021/12/22 05:55:10;;;;;;;14.15;8.43;;;-0.80;99.90;;;;;;5014340;28;20037;-68
2021/12/22 05:57:35;;;;;;;13.63;8.45;;;-0.70;99.90;;;;;;5014520;28;20068;-68
2021/12/22 06:00:02;;;;;;;13.00;8.70;;;-0.60;99.90;;;;;;5016548;28;20063;-69
2021/12/22 06:02:28;;;;;;;15.45;8.13;;;-0.70;99.90;;;;;;5015416;28;20029;-68
2021/12/22 06:04:54;;;;;;;15.85;7.97;;;-0.70;99.90;;;;;;5014478;28;20026;-68
2021/12/22 06:07:20;;;;;;;16.05;8.77;;;-0.80;99.90;;;;;;5015377;28;20407;-69
2021/12/22 06:09:47;;;;;;;14.13;8.27;;;-0.80;99.90;;;;;;5015346;28;20084;-67
2021/12/22 06:12:12;;;;;;;17.55;8.88;;;-0.70;99.90;;;;;;5014957;28;20391;-69
2021/12/22 06:14:38;;;;;;;15.52;9.30;;;-0.70;99.90;;;;;;5011990;28;20501;-67
2021/12/22 06:17:03;;;;;;;14.18;8.65;;;-0.70;99.90;;;;;;5013212;28;20037;-67
2021/12/22 06:19:29;;;;;;;14.32;9.35;;;-0.70;99.90;;;;;;5013102;28;20112;-67
2021/12/22 06:21:55;;;;;;;15.98;8.68;;;-0.70;99.90;;;;;;5011697;28;20392;-68
2021/12/22 06:24:20;;;;;;;16.27;8.90;;;-0.80;99.90;;;;;;5014156;28;20406;-68
2021/12/22 06:26:46;;;;;;;15.25;8.68;;;-0.70;99.90;;;;;;5015340;28;20033;-68
2021/12/22 06:29:11;;;;;;;13.82;8.43;;;-0.70;99.90;;;;;;5014816;28;20042;-67
2021/12/22 06:31:37;;;;;;;16.88;9.13;;;-0.80;99.90;;;;;;5015400;28;20026;-68
2021/12/22 06:34:03;;;;;;;15.75;8.73;;;-0.80;99.90;;;;;;5015815;28;20030;-68
2021/12/22 06:36:29;;;;;;;16.35;8.13;;;-0.90;99.90;;;;;;5017228;28;20205;-69
2021/12/22 06:38:55;;;;;;;13.60;8.57;;;-0.90;99.90;;;;;;5018387;28;20029;-70
2021/12/22 06:41:21;;;;;;;17.67;9.50;;;-0.90;99.90;;;;;;5018656;28;20395;-69
2021/12/22 06:43:46;;;;;;;19.63;10.85;;;-0.90;99.90;;;;;;5016747;28;20037;-69
2021/12/22 06:46:12;;;;;;;20.40;10.27;;;-0.90;99.90;;;;;;5015803;28;20026;-69
2021/12/22 06:48:37;;;;;;;19.77;9.85;;;-0.90;99.90;;;;;;5017148;28;20065;-69
2021/12/22 06:51:03;;;;;;;15.90;9.60;;;-1.00;99.90;;;;;;5016758;28;20460;-69
2021/12/22 06:53:34;;;;;;;18.48;9.82;;;-0.90;99.90;;;;;;5016072;28;20490;-69
2021/12/22 06:56:03;;;;;;;22.00;10.98;;;-0.90;99.90;;;;;;5015570;28;20044;-68
2021/12/22 06:58:28;;;;;;;19.05;10.48;;;-1.00;99.90;;;;;;5016366;28;20048;-67
2021/12/22 07:00:54;;;;;;;18.83;10.23;;;-0.90;99.90;;;;;;5015887;28;20108;-69
2021/12/22 07:03:20;;;;;;;17.80;10.27;;;-1.00;99.90;;;;;;5017162;28;20026;-69
2021/12/22 07:05:45;;;;;;;16.02;9.60;;;-1.00;99.90;;;;;;5016391;28;20029;-69
2021/12/22 07:08:11;;;;;;;17.38;11.02;;;-1.00;99.90;;;;;;5017551;28;20026;-67
2021/12/22 07:10:37;;;;;;;18.80;10.93;;;-1.00;99.90;;;;;;5017128;28;20026;-70
2021/12/22 07:13:03;;;;;;;23.35;12.82;;;-1.00;99.90;;;;;;5018868;28;20074;-70
2021/12/22 07:15:29;;;;;;;23.33;11.60;;;-1.10;99.90;;;;;;5018113;28;20041;-67
2021/12/22 07:17:55;;;;;;;19.15;10.55;;;-1.00;99.90;;;;;;5017302;28;20029;-69
2021/12/22 07:20:22;;;;;;;16.88;10.00;;;-1.00;99.90;;;;;;5017027;28;20030;-69
2021/12/22 07:22:48;;;;;;;15.73;9.75;;;-0.90;99.90;;;;;;5015622;28;20038;-68
2021/12/22 07:25:15;;;;;;;15.43;8.73;;;-0.90;99.90;;;;;;5018362;28;20036;-69
2021/12/22 07:27:41;;;;;;;18.23;9.77;;;-0.90;99.90;;;;;;5015844;28;20026;-68
2021/12/22 07:30:07;;;;;;;18.50;9.10;;;-0.70;99.90;;;;;;5016877;28;20049;-68
2021/12/22 07:32:33;;;;;;;20.42;10.43;;;-0.60;99.90;;;;;;5019816;28;20101;-68
2021/12/22 07:35:09;;;;;;;14.82;9.45;;;-0.50;99.90;;;;;;5016921;28;20088;-70
2021/12/22 07:37:50;;;;;;;13.82;9.55;;;-0.40;99.90;;;;;;5017147;28;20033;-68
2021/12/22 07:40:19;;;;;;;14.33;9.43;;;-0.50;99.90;;;;;;5015643;28;20057;-69
2021/12/22 07:42:45;;;;;;;15.15;9.40;;;-0.40;99.90;;;;;;4997991;28;20053;-69
2021/12/22 07:45:11;;;;;;;16.08;9.07;;;-0.20;99.90;;;;;;5016382;28;20412;-68
2021/12/22 07:47:37;;;;;;;17.92;10.23;;;-0.20;99.90;;;;;;5016402;28;20108;-69
2021/12/22 07:50:04;;;;;;;14.73;8.80;;;-0.20;99.90;;;;;;5015122;28;20475;-70
2021/12/22 07:52:30;;;;;;;16.20;9.02;;;0.00;99.90;;;;;;5016566;28;20056;-69
2021/12/22 07:54:55;;;;;;;15.52;8.98;;;0.20;99.90;;;;;;5014387;28;20455;-69
2021/12/22 07:57:21;;;;;;;12.05;7.68;;;0.60;99.90;;;;;;5016113;28;20026;-69
2021/12/22 07:59:47;;;;;;;20.35;10.75;;;1.50;99.90;;;;;;5014902;28;20022;-71
2021/12/22 08:02:13;;;;;;;25.02;12.63;;;2.20;99.90;;;;;;5015049;28;20097;-70
2021/12/22 08:04:39;;;;;;;15.85;8.88;;;2.70;99.90;;;;;;5014758;28;20025;-70
2021/12/22 08:07:05;;;;;;;13.85;7.43;;;3.80;99.90;;;;;;5013361;28;20022;-69
2021/12/22 08:09:31;;;;;;;12.70;8.18;;;4.50;99.80;;;;;;5012922;28;20022;-68
2021/12/22 08:12:04;;;;;;;15.18;8.50;;;5.10;98.20;;;;;;5012298;28;20026;-68
2021/12/22 08:14:40;;;;;;;13.55;7.35;;;5.60;97.20;;;;;;5014186;28;20555;-69
2021/12/22 08:17:07;;;;;;;13.20;8.35;;;6.00;95.50;;;;;;5013218;28;20495;-69
2021/12/22 08:19:33;;;;;;;13.10;8.80;;;6.10;95.20;;;;;;5014979;28;20032;-70
2021/12/22 08:21:59;;;;;;;13.13;8.15;;;6.80;94.10;;;;;;5014300;28;20026;-71
2021/12/22 08:24:25;;;;;;;12.60;8.35;;;7.60;91.90;;;;;;5012783;28;20168;-70
2021/12/22 08:26:51;;;;;;;14.07;8.07;;;8.20;90.10;;;;;;5013343;28;20084;-70
2021/12/22 08:29:18;;;;;;;10.55;7.72;;;7.80;87.80;;;;;;5012487;28;20077;-72
2021/12/22 08:31:44;;;;;;;13.40;7.93;;;8.20;88.60;;;;;;5013228;28;20088;-70
2021/12/22 08:34:11;;;;;;;11.20;7.10;;;8.50;85.80;;;;;;5014213;28;20045;-70
2021/12/22 08:39:23;;;;;;;12.10;7.68;;;9.90;82.80;;;;;;5014272;28;20029;-68
2021/12/22 08:41:49;;;;;;;16.58;7.20;;;9.30;81.70;;;;;;5011975;28;20042;-68
2021/12/22 08:44:18;;;;;;;15.15;6.95;;;8.70;86.20;;;;;;4996085;28;20056;-68
2021/12/22 08:46:48;;;;;;;11.73;7.07;;;9.90;81.20;;;;;;5011411;28;20022;-68
2021/12/22 08:49:15;;;;;;;10.45;6.60;;;10.70;77.20;;;;;;5013665;28;20456;-70
2021/12/22 08:51:40;;;;;;;13.88;8.18;;;10.60;84.90;;;;;;5012401;28;20030;-69
2021/12/22 08:54:06;;;;;;;10.32;7.10;;;10.80;82.60;;;;;;5012889;28;20036;-70
2021/12/22 08:56:33;;;;;;;10.02;7.10;;;10.70;74.50;;;;;;5012049;28;20026;-70
2021/12/22 08:58:59;;;;;;;12.18;6.57;;;11.30;72.90;;;;;;5013065;28;20072;-68
2021/12/22 09:01:27;;;;;;;12.07;8.18;;;11.60;71.20;;;;;;5011776;28;20026;-70
2021/12/22 09:03:53;;;;;;;12.95;7.45;;;11.90;70.50;;;;;;5011783;28;20042;-71
2021/12/22 09:06:19;;;;;;;10.57;7.05;;;11.60;69.20;;;;;;5013255;28;20026;-69
2021/12/22 09:08:45;;;;;;;11.80;7.93;;;11.50;68.80;;;;;;5014274;28;20037;-76
2021/12/22 09:11:12;;;;;;;14.52;7.47;;;12.10;68.30;;;;;;5015418;28;20022;-69
2021/12/22 09:13:39;;;;;;;13.57;8.05;;;12.00;68.30;;;;;;5012370;28;20425;-71
2021/12/22 09:16:06;;;;;;;16.10;8.30;;;11.10;68.10;;;;;;5013038;28;20040;-70
2021/12/22 09:18:32;;;;;;;18.05;7.95;;;10.90;69.50;;;;;;5012141;28;20022;-69
2021/12/22 09:20:58;;;;;;;23.25;8.48;;;10.90;70.00;;;;;;5012812;28;20434;-68
2021/12/22 09:23:24;;;;;;;17.10;9.23;;;10.90;69.30;;;;;;5012334;28;20022;-68
2021/12/22 09:25:49;;;;;;;14.77;8.15;;;10.90;69.30;;;;;;5011349;28;20030;-70
2021/12/22 09:28:18;;;;;;;13.70;8.88;;;10.50;70.40;;;;;;5011581;28;20030;-69
2021/12/22 09:30:46;;;;;;;11.27;5.95;;;11.20;69.50;;;;;;5013434;28;20050;-75
2021/12/22 09:33:14;;;;;;;12.35;7.53;;;11.50;99.90;;;;;;5019156;28;20031;-75
2021/12/22 09:35:42;;;;;;;13.98;7.35;;;12.80;99.90;;;;;;5017516;28;20033;-73
2021/12/22 09:38:08;;;;;;;17.13;8.35;;;14.10;90.30;;;;;;5009581;28;20033;-65
2021/12/22 09:40:35;;;;;;;9.68;7.40;;;14.00;76.70;;;;;;4993398;28;20029;-69
2021/12/22 09:43:01;;;;;;;13.75;8.48;;;12.50;67.50;;;;;;5007548;28;20054;-68
2021/12/22 09:45:26;;;;;;;16.80;9.30;;;12.30;69.10;;;;;;5012105;28;20406;-69
2021/12/22 09:53:23;;;;;;;14.38;8.70;;;10.70;73.00;;;;;;5004836;28;20035;-68
2021/12/22 09:55:49;;;;;;;11.90;8.98;;;10.80;71.20;;;;;;5012170;28;20026;-72
2021/12/22 09:58:15;;;;;;;16.00;10.23;;;10.20;73.50;;;;;;5010255;28;20038;-69
2021/12/22 10:00:43;;;;;;;14.35;9.35;;;10.70;71.40;;;;;;5006026;28;20065;-70
2021/12/22 10:03:10;;;;;;;12.57;8.82;;;10.20;72.40;;;;;;5014183;28;20038;-69
2021/12/22 10:05:38;;;;;;;17.48;9.13;;;11.30;72.20;;;;;;5017744;28;20029;-78
2021/12/22 10:08:14;;;;;;;15.18;9.43;;;12.30;69.10;;;;;;5016071;28;20052;-68
2021/12/22 10:10:44;;;;;;;19.20;9.73;;;12.40;69.10;;;;;;5016650;28;20132;-69
2021/12/22 10:13:22;;;;;;;15.70;9.18;;;13.00;67.70;;;;;;4998604;28;20026;-70
2021/12/22 10:15:48;;;;;;;12.52;9.23;;;12.40;66.10;;;;;;5016044;28;20088;-69
2021/12/22 10:18:27;;;;;;;13.98;9.15;;;11.30;68.40;;;;;;5015076;28;20054;-68
2021/12/22 10:21:08;;;;;;;14.52;9.75;;;11.70;67.70;;;;;;5011419;28;20022;-68
2021/12/22 10:23:34;;;;;;;16.27;9.90;;;12.20;67.40;;;;;;4995634;28;20034;-69
2021/12/22 10:26:05;;;;;;;11.63;8.80;;;13.10;67.00;;;;;;4994837;28;20034;-68
2021/12/22 10:28:52;;;;;;;13.45;9.75;;;13.30;65.30;;;;;;5011558;28;20058;-67
2021/12/22 10:31:20;;;;;;;11.23;8.55;;;12.00;66.20;;;;;;4996549;28;20030;-66
2021/12/22 10:33:48;;;;;;;15.45;10.52;;;12.30;66.50;;;;;;5011938;28;20084;-68
2021/12/22 10:36:19;;;;;;;16.92;9.68;;;11.60;65.60;;;;;;4996014;28;20034;-67
2021/12/22 10:38:53;;;;;;;15.50;9.88;;;12.00;67.40;;;;;;4996067;28;20030;-69
2021/12/22 10:41:21;;;;;;;14.20;9.38;;;12.00;66.00;;;;;;4997633;28;20308;-70
2021/12/22 10:43:50;;;;;;;20.52;9.60;;;12.20;65.80;;;;;;5012795;28;20222;-72
2021/12/22 10:46:32;;;;;;;16.75;11.18;;;12.70;65.80;;;;;;5009945;28;20037;-71
2021/12/22 10:49:17;;;;;;;16.38;11.05;;;12.50;65.70;;;;;;5004278;28;20068;-69
2021/12/22 10:51:57;;;;;;;19.23;10.40;;;12.30;65.00;;;;;;5004717;28;20061;-68
2021/12/22 10:54:33;;;;;;;12.40;8.93;;;12.00;66.50;;;;;;5001557;28;20109;-67
2021/12/22 10:57:02;;;;;;;15.95;11.63;;;11.70;66.20;;;;;;5008230;28;20033;-70
2021/12/22 10:59:39;;;;;;;13.77;9.95;;;11.30;67.00;;;;;;5015983;28;20030;-66
2021/12/22 11:02:08;;;;;;;17.90;10.50;;;10.40;69.40;;;;;;5010811;28;20042;-67
2021/12/22 11:04:35;;;;;;;13.38;10.18;;;9.70;71.10;;;;;;5007894;28;20073;-69
2021/12/22 11:07:28;;;;;;;14.10;10.50;;;9.40;72.10;;;;;;5016442;28;20112;-67
2021/12/22 11:09:55;;;;;;;19.08;10.95;;;9.30;72.60;;;;;;5016822;28;20072;-67
2021/12/22 11:12:38;;;;;;;17.10;11.18;;;10.10;72.60;;;;;;5017081;28;20098;-70
2021/12/22 11:15:05;;;;;;;18.52;10.65;;;9.30;72.20;;;;;;5017939;28;20096;-68
2021/12/22 11:17:37;;;;;;;16.92;11.07;;;8.80;74.00;;;;;;5014477;28;20029;-69
2021/12/22 11:20:04;;;;;;;14.20;10.27;;;9.30;75.10;;;;;;5017659;28;20034;-68
2021/12/22 11:22:47;;;;;;;16.15;11.30;;;10.50;72.00;;;;;;5018618;28;20050;-68
2021/12/22 11:25:13;;;;;;;15.48;10.45;;;10.80;70.80;;;;;;5011041;28;20026;-69
2021/12/22 11:27:39;;;;;;;18.08;10.60;;;9.80;72.50;;;;;;5009591;28;20034;-67
2021/12/22 11:30:07;;;;;;;17.42;11.13;;;10.50;73.80;;;;;;5010703;28;20101;-72
2021/12/22 11:32:33;;;;;;;17.55;11.77;;;10.30;70.00;;;;;;4998222;28;20025;-70
2021/12/22 11:35:02;;;;;;;16.52;11.30;;;11.00;69.90;;;;;;5011155;28;20042;-67
2021/12/22 11:37:29;;;;;;;12.20;10.50;;;11.40;70.70;;;;;;5014230;28;20030;-66
2021/12/22 11:39:57;;;;;;;13.75;11.50;;;11.50;68.90;;;;;;5011745;28;20034;-69
2021/12/22 11:42:28;;;;;;;14.70;11.50;;;11.30;68.70;;;;;;5014314;28;20161;-67
2021/12/22 11:44:58;;;;;;;14.43;11.18;;;11.60;68.70;;;;;;5016184;28;20034;-67
2021/12/22 11:47:25;;;;;;;21.88;11.35;;;10.50;70.20;;;;;;5013398;28;20029;-68
2021/12/22 11:49:57;;;;;;;13.75;10.57;;;10.50;70.70;;;;;;5012466;28;20482;-69
2021/12/22 11:52:36;;;;;;;14.88;11.18;;;11.20;70.40;;;;;;5014047;28;20124;-66
2021/12/22 11:55:11;;;;;;;25.92;11.20;;;11.00;68.00;;;;;;5025561;28;20042;-66
2021/12/22 11:57:39;;;;;;;21.75;10.57;;;11.10;70.50;;;;;;5010093;28;20468;-66
2021/12/22 12:00:28;;;;;;;13.95;10.57;;;11.50;68.00;;;;;;5011889;28;20045;-67
2021/12/22 12:02:56;;;;;;;18.83;11.80;;;11.70;68.10;;;;;;5013333;28;20044;-68
2021/12/22 12:05:33;;;;;;;14.75;10.75;;;12.90;65.80;;;;;;5011854;28;20036;-68
2021/12/22 12:08:02;;;;;;;13.88;9.88;;;12.10;66.50;;;;;;5011248;28;20018;-67
2021/12/22 12:10:40;;;;;;;14.65;9.48;;;11.50;67.80;;;;;;5013466;28;20363;-66
2021/12/22 12:13:20;;;;;;;13.65;10.32;;;12.80;71.10;;;;;;5014383;28;20022;-76
2021/12/22 12:22:18;;;;;;;13.25;9.65;;;14.10;67.50;;;;;;5007501;28;20091;-69
2021/12/22 12:24:59;;;;;;;13.15;10.20;;;13.40;65.60;;;;;;5011824;28;20032;-70
2021/12/22 12:27:56;;;;;;;14.45;10.05;;;12.10;67.20;;;;;;5013748;28;20030;-69
2021/12/22 12:30:43;;;;;;;14.13;10.73;;;12.30;67.80;;;;;;4963860;28;20065;-69
2021/12/22 12:33:20;;;;;;;13.55;10.07;;;9.00;72.90;;;;;;4966915;28;20198;-68
2021/12/22 12:36:04;;;;;;;13.10;10.40;;;9.50;74.60;;;;;;4970858;28;20114;-69
2021/12/22 12:38:51;;;;;;;13.93;11.05;;;10.10;73.20;;;;;;4976663;28;20030;-70
2021/12/22 12:41:20;;;;;;;18.30;11.20;;;9.70;74.00;;;;;;4951178;28;20074;-67
2021/12/22 12:43:55;;;;;;;22.65;11.68;;;10.10;72.80;;;;;;4970577;28;20039;-67
2021/12/22 12:46:21;;;;;;;17.73;11.57;;;10.70;73.30;;;;;;4969941;28;20039;-67
2021/12/22 12:49:07;;;;;;;14.18;11.13;;;11.20;71.60;;;;;;4971792;28;20054;-67
2021/12/22 12:51:49;;;;;;;15.65;11.23;;;11.00;70.40;;;;;;4965389;28;20183;-73
2021/12/22 12:54:18;;;;;;;18.95;11.63;;;11.40;70.80;;;;;;4971305;28;20491;-68
2021/12/22 12:56:46;;;;;;;15.80;10.75;;;11.30;69.90;;;;;;4955553;28;20023;-66
2021/12/22 12:59:14;;;;;;;16.77;11.52;;;11.50;70.60;;;;;;4951970;29;20039;-68
2021/12/22 13:02:00;;;;;;;19.35;12.32;;;11.90;69.50;;;;;;4950233;29;20054;-66
2021/12/22 13:04:39;;;;;;;16.40;11.07;;;11.30;69.50;;;;;;4950262;29;20079;-67
2021/12/22 13:07:11;;;;;;;16.13;10.50;;;11.70;69.80;;;;;;4950190;28;20042;-71
2021/12/22 13:09:38;;;;;;;19.48;10.57;;;11.60;69.20;;;;;;5008034;28;20136;-69
2021/12/22 13:17:49;;;;;;;14.43;10.80;;;11.10;71.00;;;;;;5007340;28;20493;-69